マガダン の空港の天気 - METARとTAF

マガダン・ソコル空港 ( UHMM / GDX ) - ロシア マガダン
飛行場実況気象(Metar)
観測時間07/23 01:00 MAGT (07/22 14:00 UTC)
風向・風速静穏 0m/s
視程10km以上
天気現象
なし
気温9℃
湿度87%
気圧1010hPa
METARUHMM 221400Z 00000MPS 9999 NSC 09/07 Q1010 RMK QFE743
過去の天気等 Google飛行場航空写真 Wunderground天気予報

過去48時間のMETAR

飛行場予報(TAF)
発表時間: 7/23 04:00 MAGT (7/22 17:00 UTC)
予報対象時間: 23日5時 MAGT ~ 24日11時 MAGT
風向・風速南南西 3m/s
視程10km以上
全天の4割程度の雲 雲底高度 1220m
全天の8割程度の雲 雲底高度 2130m
23日5時 MAGT ~ 23日9時 MAGT に一時的に
少しの雲 雲底高度 120m
全天の8割程度の雲 雲底高度 340m
23日9時 MAGT ~ 23日10時 MAGT に徐々に
風向・風速南西 3m/s 瞬間風速 9m/s
TAF UHMM 221700Z 2218/2324 20003MPS 9999 SCT040 BKN070
TEMPO 2218/2222 FEW004 BKN011
BECMG 2222/2223 22003G09MPS